Aérodrome :
LOGIN :

S'inscrire | Disclaimer

   EN    FR    IT 

 










Légende :    VFR   VFR Marginal   IFR   IFR Intensif   IFR Très Intensif
Visi : 
Plafond : 
>= 8 km
>= 3000ft
5 à 8 km
1000 à 3000 ft
1500m à 5 km
500 à 1000 ft
800 à 1500m
200 à 500 ft
< 800m
< 200 ft
Symboles :   Orages  Brouillard  Fortes neiges  Fortes précipitations  Vent > 20 kt
SIGMETs :   Divers  Orages  Givrage  Turbulence  Onde Orograph.  Cendres Volcan.






- Altitude de l'aérodrome : 15 ft
- Code IATA : FCO


LIRF - Roma Leonardo da Vinci Fiumicino

DERNIER METAR :
  • 172250Z 06002KT CAVOK 20/19 Q1018 NOSIG

METARs EXPIRÉS :
  • 172220Z VRB02KT CAVOK 20/18 Q1018 NOSIG
  • 172150Z 04002KT CAVOK 21/19 Q1018 NOSIG
  • 172120Z VRB01KT CAVOK 21/19 Q1018 NOSIG
  • 172050Z VRB01KT CAVOK 22/19 Q1018 NOSIG
  • 172020Z 21003KT 160V270 CAVOK 22/19 Q1018 NOSIG

TAF TAF LIRF
Valide du 17 à 18h jusqu'au 19 à 00h UTC


171700Z 1718/1824 25010KT 9999 FEW030
BECMG 1718/1720 VRB04KT
PROB30
TEMPO 1800/1805 3000 BR
BECMG 1808/1810 25012KT
BECMG 1818/1820 VRB05KT



MET'MAP, la Météo Aéronautique d'un coup d'oeil ! - Copyright ORBIFLY Décembre 2007 - Disclaimer

ORBIFLY MET'MAP TEAM :

Programmation & Développement : Alexandra Zaïnal
Sur une idée originale de : Baudouin d'Aumeries
Assistance à la programmation : Marc-Olivier Méhu
Soutien technique & logistique : Manuel Goepfert

Contact : metmap@orbifly.com




SOURCES & CREDITS :

   NOAA